Pagrindinis puslapis
METAR-TAF:

METAR-TAF

Oro uostai :

Oro pajėgų bazė

Hachinohe, Japonija

platuma: 40-33N, ilguma: 141-28E, Aukštis: 46 m

Dabartinis oras

Ataskaita buvo paskelbta 10 valandos ir 29 minutes, ne 02:40 UTC
Vėjas 15 kt iš Vakarų su gūsio iki 25 kt, svyruoja nuo Pietvakarių ir Šiaurės Vakarų
Temperatūra 5°C
Drėgmė 38%
Slėgis 1023 hPa
Matomumas 10 km arba daugiau
Mažai debesys ne aukštis 2000 ft
Su prošvaistėmis ne aukštis 4000 ft

METAR: RJSH 130240Z 26015G25KT 220V310 9999 FEW020 BKN040 05/M08 Q1023 RMK 1CU020 5CU040 A3023

Laikas: 22:09 (13:09 UTC)


TAF: trūkstamas

Orai ataskaitas ir orų prognozės (METAR, TAF).

turimą stotys yra geltonos ir raudonos taškus žemėlapyje.

Perkelti pele per norėdami pamatyti stoties vardą.

Tada spustelėkite, norėdami matyti oro stebėjimo ir prognozės.

Norėdami pakeisti žemėlapį: spustelėkite ant žalios mygtukų su juodo kryžiaus žemyn,; žalią mygtuką su brūkšneliu, jei norite nutolinti; arba žalių rodyklių gretimoms žemėlapius.


METAR-TAF: